Time;durP1;ratioP1;P1;durP2;ratioP2;P2;SDS_P1;SDS_P2;PMS_P1;PMS_P2;Temp;Humidity;BMP_temperature;BMP_pressure;BME280_temperature;BME280_humidity;BME280_pressure;Samples;Min_cycle;Max_cycle;Signal;HPM_P1;HPM_P2
2023/01/31 00:00:12;;;;;;;;;;;4.40;99.90;;;;;;5038536;28;19925;-74
2023/01/31 00:02:40;;;;;;;;;;;4.50;99.90;;;;;;5037970;28;19974;-74
2023/01/31 00:05:32;;;;;;;;;;;4.50;99.90;;;;;;5020880;28;19960;-73
2023/01/31 00:08:11;;;;;;;;;;;4.30;99.90;;;;;;5035938;28;19974;-73
2023/01/31 00:10:36;;;;;;;;;;;4.30;99.90;;;;;;5021040;28;19928;-74
2023/01/31 00:13:05;;;;;;;;;;;4.40;99.90;;;;;;5021904;28;19960;-74
2023/01/31 00:15:33;;;;;;;;;;;4.40;99.90;;;;;;5021283;28;20610;-73
2023/01/31 00:18:02;;;;;;;;;;;;;;;;;;5021956;28;19967;-73
2023/01/31 00:20:28;;;;;;;;;;;4.20;99.90;;;;;;5037478;28;19921;-74
2023/01/31 00:23:15;;;;;;;;;;;4.20;99.90;;;;;;5038645;28;19931;-74
2023/01/31 00:26:00;;;;;;;;;;;;;;;;;;;;;
2023/01/31 00:28:45;;;;;;;;;;;4.50;99.90;;;;;;5037969;28;20325;-74
2023/01/31 00:31:20;;;;;;;;;;;4.20;99.90;;;;;;5037708;28;19982;-74
2023/01/31 00:34:10;;;;;;;;;;;4.50;99.90;;;;;;5026770;28;19925;-74
2023/01/31 00:36:38;;;;;;;;;;;4.40;99.90;;;;;;5037559;28;19920;-74
2023/01/31 00:39:08;;;;;;;;;;;4.30;99.90;;;;;;5018911;28;19970;-74
2023/01/31 00:41:42;;;;;;;;;;;4.30;99.90;;;;;;5020629;28;19924;-74
2023/01/31 00:44:22;;;;;;;;;;;4.20;99.90;;;;;;5037056;28;19925;-74
2023/01/31 00:46:57;;;;;;;;;;;4.30;99.90;;;;;;5038138;28;20024;-74
2023/01/31 00:49:37;;;;;;;;;;;4.30;99.90;;;;;;5037314;28;19977;-73
2023/01/31 00:52:08;;;;;;;;;;;4.40;99.90;;;;;;5037423;28;19967;-73
2023/01/31 00:54:47;;;;;;;;;;;;;;;;;;;;;
2023/01/31 00:57:16;;;;;;;;;;;4.30;99.90;;;;;;5036497;28;19924;-73
2023/01/31 00:59:47;;;;;;;;;;;4.30;99.90;;;;;;5035051;28;19920;-73
2023/01/31 01:02:29;;;;;;;;;;;4.30;99.90;;;;;;5036866;28;19968;-74
2023/01/31 01:05:11;;;;;;;;;;;4.20;99.90;;;;;;5038219;28;19925;-72
2023/01/31 01:07:40;;;;;;;;;;;4.20;99.90;;;;;;5020436;28;19927;-73
2023/01/31 01:10:08;;;;;;;;;;;4.30;99.90;;;;;;5035997;28;20459;-73
2023/01/31 01:12:48;;;;;;;;;;;4.40;99.90;;;;;;5036727;28;19924;-74
2023/01/31 01:15:14;;;;;;;;;;;4.10;99.90;;;;;;5036725;28;19927;-73
2023/01/31 01:18:14;;;;;;;;;;;4.40;99.90;;;;;;5043792;28;19921;-74
2023/01/31 01:20:52;;;;;;;;;;;4.20;99.90;;;;;;5020933;28;20098;-73
2023/01/31 01:23:26;;;;;;;;;;;4.20;99.90;;;;;;5020462;28;20302;-74
2023/01/31 01:25:55;;;;;;;;;;;4.30;99.90;;;;;;5054160;28;20386;-74
2023/01/31 01:28:37;;;;;;;;;;;4.30;99.90;;;;;;5036011;28;19929;-74
2023/01/31 01:31:04;;;;;;;;;;;4.30;99.90;;;;;;5020430;28;20390;-74
2023/01/31 01:33:39;;;;;;;;;;;4.30;99.90;;;;;;5020236;28;20401;-74
2023/01/31 01:36:10;;;;;;;;;;;4.30;99.90;;;;;;5020015;28;19931;-74
2023/01/31 01:38:40;;;;;;;;;;;4.30;99.90;;;;;;5019584;28;19921;-74
2023/01/31 01:41:17;;;;;;;;;;;4.40;99.90;;;;;;5019771;28;20069;-74
2023/01/31 01:44:10;;;;;;;;;;;4.50;99.90;;;;;;5035411;28;19925;-74
2023/01/31 01:46:47;;;;;;;;;;;4.50;99.90;;;;;;5034793;28;19929;-73
2023/01/31 01:49:18;;;;;;;;;;;4.50;99.90;;;;;;5020395;28;19928;-73
2023/01/31 01:51:51;;;;;;;;;;;4.60;99.90;;;;;;5033581;28;19928;-74
2023/01/31 01:54:24;;;;;;;;;;;4.50;99.90;;;;;;5019547;28;19927;-73
2023/01/31 01:56:52;;;;;;;;;;;4.50;99.90;;;;;;5019126;28;20264;-74
2023/01/31 01:59:24;;;;;;;;;;;4.60;99.90;;;;;;5036139;28;20302;-73
2023/01/31 02:01:50;;;;;;;;;;;4.70;99.90;;;;;;5035935;28;20290;-74
2023/01/31 02:04:23;;;;;;;;;;;4.70;99.90;;;;;;5019699;28;19920;-74
2023/01/31 02:07:01;;;;;;;;;;;4.50;99.90;;;;;;5019609;28;19924;-74
2023/01/31 02:09:57;;;;;;;;;;;4.50;99.90;;;;;;5036870;28;19920;-74
2023/01/31 02:12:23;;;;;;;;;;;4.70;99.90;;;;;;5035587;28;19921;-73
2023/01/31 02:14:52;;;;;;;;;;;4.80;99.90;;;;;;5019395;28;19925;-73
2023/01/31 02:17:20;;;;;;;;;;;4.60;99.90;;;;;;5018558;28;20401;-73
2023/01/31 02:19:51;;;;;;;;;;;4.50;99.90;;;;;;5053104;28;19943;-74
2023/01/31 02:22:31;;;;;;;;;;;4.90;99.90;;;;;;5016129;28;20401;-74
2023/01/31 02:25:18;;;;;;;;;;;4.80;99.90;;;;;;5035459;28;20430;-74
2023/01/31 02:28:02;;;;;;;;;;;4.70;99.90;;;;;;5018882;28;20485;-73
2023/01/31 02:30:41;;;;;;;;;;;4.80;99.90;;;;;;5018572;28;19928;-73
2023/01/31 02:33:20;;;;;;;;;;;4.90;99.90;;;;;;5018945;28;20390;-73
2023/01/31 02:35:54;;;;;;;;;;;4.90;99.90;;;;;;5019286;28;19943;-73
2023/01/31 02:39:05;;;;;;;;;;;;;;;;;;;;;
2023/01/31 02:41:47;;;;;;;;;;;5.10;99.90;;;;;;5052891;28;19978;-73
2023/01/31 02:47:13;;;;;;;;;;;4.90;99.90;;;;;;5034046;28;20006;-74
2023/01/31 02:50:17;;;;;;;;;;;5.00;99.90;;;;;;5034460;28;19981;-73
2023/01/31 02:52:52;;;;;;;;;;;5.00;99.90;;;;;;5008450;28;19947;-74
2023/01/31 02:58:26;;;;;;;;;;;5.10;99.90;;;;;;5034988;28;20333;-73
2023/01/31 03:00:58;;;;;;;;;;;5.00;99.90;;;;;;5017982;28;20553;-74
2023/01/31 03:03:29;;;;;;;;;;;5.10;99.90;;;;;;5015221;28;19975;-74
2023/01/31 03:06:17;;;;;;;;;;;5.30;99.90;;;;;;5032789;28;19921;-74
2023/01/31 03:08:52;;;;;;;;;;;;;;;;;;5036128;28;19975;-74
2023/01/31 03:11:55;;;;;;;;;;;5.20;99.90;;;;;;5035706;28;19921;-74
2023/01/31 03:14:42;;;;;;;;;;;5.20;99.90;;;;;;5018979;28;19960;-75
2023/01/31 03:20:12;;;;;;;;;;;5.20;99.90;;;;;;5034411;28;19920;-74
2023/01/31 03:22:53;;;;;;;;;;;5.40;99.90;;;;;;5034206;28;19927;-74
2023/01/31 03:25:26;;;;;;;;;;;5.10;99.90;;;;;;5034429;28;19925;-73
2023/01/31 03:28:13;;;;;;;;;;;5.30;99.90;;;;;;5034407;28;19990;-74
2023/01/31 03:30:50;;;;;;;;;;;5.40;99.90;;;;;;5018373;28;19968;-74
2023/01/31 03:33:25;;;;;;;;;;;;;;;;;;5034529;28;19928;-73
2023/01/31 03:36:15;;;;;;;;;;;5.30;99.90;;;;;;5018135;28;20294;-74
2023/01/31 03:38:44;;;;;;;;;;;;;;;;;;5017396;28;20284;-74
2023/01/31 03:41:25;;;;;;;;;;;5.40;99.90;;;;;;5032778;28;19921;-73
2023/01/31 03:43:58;;;;;;;;;;;5.30;99.90;;;;;;5034505;28;20421;-74
2023/01/31 03:46:27;;;;;;;;;;;5.50;99.90;;;;;;5034391;28;19927;-74
2023/01/31 03:49:01;;;;;;;;;;;5.40;99.90;;;;;;5018686;28;19920;-74
2023/01/31 03:51:35;;;;;;;;;;;5.60;99.90;;;;;;5034644;28;19921;-75
2023/01/31 03:54:04;;;;;;;;;;;5.70;99.90;;;;;;5017989;28;20294;-74
2023/01/31 03:56:41;;;;;;;;;;;5.50;99.90;;;;;;5051708;28;19971;-74
2023/01/31 03:59:09;;;;;;;;;;;5.40;99.90;;;;;;5015051;28;19921;-74
2023/01/31 04:01:38;;;;;;;;;;;5.50;99.90;;;;;;5033958;28;19929;-74
2023/01/31 04:04:08;;;;;;;;;;;;;;;;;;5017402;28;19925;-74
2023/01/31 04:06:42;;;;;;;;;;;5.70;99.90;;;;;;5034379;28;20416;-74
2023/01/31 04:09:24;;;;;;;;;;;5.80;99.90;;;;;;5033861;28;19921;-74
2023/01/31 04:12:00;;;;;;;;;;;5.50;99.90;;;;;;5051327;28;19921;-74
2023/01/31 04:14:26;;;;;;;;;;;5.60;99.90;;;;;;5031530;28;20023;-74
2023/01/31 04:17:01;;;;;;;;;;;5.80;99.90;;;;;;5018161;28;20015;-73
2023/01/31 04:19:32;;;;;;;;;;;5.80;99.90;;;;;;5033923;28;20012;-73
2023/01/31 04:22:18;;;;;;;;;;;5.80;99.90;;;;;;5034129;28;20469;-74
2023/01/31 04:24:50;;;;;;;;;;;6.10;99.90;;;;;;5018322;28;19925;-73
2023/01/31 04:27:25;;;;;;;;;;;;;;;;;;;;;
2023/01/31 04:29:59;;;;;;;;;;;;;;;;;;5051692;28;19925;-73
2023/01/31 04:32:28;;;;;;;;;;;6.00;99.90;;;;;;5034432;28;19920;-74
2023/01/31 04:34:57;;;;;;;;;;;5.90;99.90;;;;;;5017546;28;20451;-73
2023/01/31 04:37:31;;;;;;;;;;;6.00;99.90;;;;;;5033959;28;20448;-73
2023/01/31 04:40:08;;;;;;;;;;;5.80;99.90;;;;;;5034927;28;20012;-74
2023/01/31 04:42:42;;;;;;;;;;;5.80;99.90;;;;;;5032742;28;19921;-74
2023/01/31 04:45:16;;;;;;;;;;;6.00;99.90;;;;;;5038987;28;20034;-74
2023/01/31 04:48:05;;;;;;;;;;;6.10;99.90;;;;;;5036693;28;19928;-74
2023/01/31 04:50:38;;;;;;;;;;;5.90;99.90;;;;;;5037409;28;19928;-74
2023/01/31 04:53:10;;;;;;;;;;;6.00;99.90;;;;;;5020569;28;19921;-73
2023/01/31 04:55:56;;;;;;;;;;;5.90;99.90;;;;;;5020169;28;19920;-74
2023/01/31 04:58:52;;;;;;;;;;;6.10;99.90;;;;;;4980447;28;19929;-74
2023/01/31 05:01:23;;;;;;;;;;;6.00;99.90;;;;;;5000390;28;19948;-74
2023/01/31 05:04:12;;;;;;;;;;;5.90;99.90;;;;;;5034115;28;19927;-73
2023/01/31 05:06:54;;;;;;;;;;;5.80;99.90;;;;;;5020656;28;19920;-74
2023/01/31 05:09:23;;;;;;;;;;;5.80;99.90;;;;;;5033702;28;19920;-74
2023/01/31 05:11:56;;;;;;;;;;;;;;;;;;5036373;28;19986;-74
2023/01/31 05:14:26;;;;;;;;;;;;;;;;;;5020115;28;19931;-74
2023/01/31 05:17:13;;;;;;;;;;;5.90;99.90;;;;;;5036713;28;19928;-74
2023/01/31 05:19:47;;;;;;;;;;;6.00;99.90;;;;;;5036664;28;20015;-74
2023/01/31 05:22:38;;;;;;;;;;;5.90;99.90;;;;;;5036716;28;19932;-74
2023/01/31 05:25:04;;;;;;;;;;;6.00;99.90;;;;;;5016232;28;20011;-73
2023/01/31 05:27:30;;;;;;;;;;;5.90;99.90;;;;;;5036135;28;20398;-73
2023/01/31 05:30:01;;;;;;;;;;;5.70;99.90;;;;;;5020702;28;20015;-73
2023/01/31 05:32:31;;;;;;;;;;;5.80;99.90;;;;;;5020115;28;19928;-74
2023/01/31 05:35:00;;;;;;;;;;;5.90;99.90;;;;;;5019406;28;19927;-74
2023/01/31 05:37:41;;;;;;;;;;;6.00;99.90;;;;;;5037380;28;20361;-74
2023/01/31 05:40:16;;;;;;;;;;;5.70;99.90;;;;;;5036336;28;20413;-74
2023/01/31 05:42:49;;;;;;;;;;;5.90;99.90;;;;;;5020116;28;19932;-74
2023/01/31 05:45:20;;;;;;;;;;;5.90;99.90;;;;;;5019409;28;19921;-73
2023/01/31 05:47:52;;;;;;;;;;;5.70;99.90;;;;;;5019795;28;19984;-74
2023/01/31 05:53:35;;;;;;;;;;;6.00;99.90;;;;;;5042944;28;20069;-73
2023/01/31 05:56:06;;;;;;;;;;;6.00;99.90;;;;;;5018793;28;20054;-74
2023/01/31 05:58:35;;;;;;;;;;;5.90;99.90;;;;;;5054288;28;20002;-75
2023/01/31 06:01:09;;;;;;;;;;;6.20;99.90;;;;;;5018852;28;19921;-74
2023/01/31 06:03:47;;;;;;;;;;;6.10;99.90;;;;;;5020274;28;20348;-73
2023/01/31 06:06:45;;;;;;;;;;;6.10;99.90;;;;;;5038085;28;19921;-74
2023/01/31 06:09:14;;;;;;;;;;;6.10;99.90;;;;;;5034471;28;19978;-74
2023/01/31 06:11:42;;;;;;;;;;;6.20;99.90;;;;;;5015695;28;20011;-74
2023/01/31 06:14:18;;;;;;;;;;;6.20;99.90;;;;;;5020366;28;19928;-73
2023/01/31 06:17:03;;;;;;;;;;;6.40;99.90;;;;;;5020314;28;19978;-74
2023/01/31 06:19:37;;;;;;;;;;;6.20;99.90;;;;;;5036631;28;19924;-73
2023/01/31 06:22:06;;;;;;;;;;;6.20;99.90;;;;;;5019006;28;20457;-72
2023/01/31 06:24:34;;;;;;;;;;;6.20;99.90;;;;;;5019231;28;20020;-74
2023/01/31 06:27:05;;;;;;;;;;;6.10;99.90;;;;;;5007596;28;20467;-74
2023/01/31 06:29:36;;;;;;;;;;;6.40;99.90;;;;;;4966792;28;19973;-73
2023/01/31 06:32:05;;;;;;;;;;;6.40;99.90;;;;;;5037965;28;20004;-74
2023/01/31 06:34:40;;;;;;;;;;;;;;;;;;5052993;28;19921;-74
2023/01/31 06:37:20;;;;;;;;;;;6.30;99.90;;;;;;5013536;28;19924;-73
2023/01/31 06:39:58;;;;;;;;;;;6.40;99.90;;;;;;5027002;28;20298;-74
2023/01/31 06:42:26;;;;;;;;;;;6.30;99.90;;;;;;5029966;28;19980;-73
2023/01/31 06:45:05;;;;;;;;;;;6.40;99.90;;;;;;5009963;28;20040;-73
2023/01/31 06:47:31;;;;;;;;;;;6.30;99.90;;;;;;5022989;28;19975;-73
2023/01/31 06:50:04;;;;;;;;;;;6.00;99.90;;;;;;5047806;28;20011;-74
2023/01/31 06:55:26;;;;;;;;;;;6.40;99.90;;;;;;5044646;28;19982;-73
2023/01/31 06:58:10;;;;;;;;;;;6.50;99.90;;;;;;5025352;28;19925;-74
2023/01/31 07:00:38;;;;;;;;;;;6.30;99.90;;;;;;5013614;28;20401;-74
2023/01/31 07:03:18;;;;;;;;;;;;;;;;;;5007064;28;19933;-73
2023/01/31 07:05:47;;;;;;;;;;;6.60;99.90;;;;;;5025406;28;19925;-74
2023/01/31 07:08:13;;;;;;;;;;;;;;;;;;5044068;28;19943;-74
2023/01/31 07:10:50;;;;;;;;;;;6.60;99.90;;;;;;5044988;28;20382;-73
2023/01/31 07:13:27;;;;;;;;;;;6.60;99.90;;;;;;5030521;28;19927;-71
2023/01/31 07:15:59;;;;;;;;;;;6.50;99.90;;;;;;5031383;28;19931;-74
2023/01/31 07:18:30;;;;;;;;;;;6.40;99.90;;;;;;4995690;28;19927;-74
2023/01/31 07:21:23;;;;;;;;;;;6.50;99.90;;;;;;5007833;28;19924;-74
2023/01/31 07:23:57;;;;;;;;;;;6.50;99.90;;;;;;5009217;28;20016;-73
2023/01/31 07:26:25;;;;;;;;;;;6.60;99.90;;;;;;5034306;28;20441;-73
2023/01/31 07:29:00;;;;;;;;;;;6.50;99.90;;;;;;5005966;28;19925;-74
2023/01/31 07:31:31;;;;;;;;;;;6.40;99.90;;;;;;5024244;28;19931;-73
2023/01/31 07:34:03;;;;;;;;;;;;;;;;;;5033381;28;19928;-74
2023/01/31 07:36:34;;;;;;;;;;;6.50;99.90;;;;;;5008977;28;20378;-74
2023/01/31 07:39:02;;;;;;;;;;;6.50;99.90;;;;;;5011730;28;19936;-74
2023/01/31 07:41:34;;;;;;;;;;;6.50;99.90;;;;;;5005778;28;19929;-73
2023/01/31 07:44:17;;;;;;;;;;;6.60;99.90;;;;;;5030999;28;19921;-74
2023/01/31 07:46:45;;;;;;;;;;;6.50;99.90;;;;;;5030483;28;19935;-74
2023/01/31 07:49:17;;;;;;;;;;;6.40;99.90;;;;;;5000460;28;20303;-73
2023/01/31 07:51:48;;;;;;;;;;;6.50;99.90;;;;;;5023816;28;20051;-72
2023/01/31 07:54:14;;;;;;;;;;;6.50;99.90;;;;;;5044797;28;20003;-74
2023/01/31 07:56:46;;;;;;;;;;;6.60;99.90;;;;;;5013299;28;19921;-74
2023/01/31 07:59:12;;;;;;;;;;;;;;;;;;5031215;28;19971;-74
2023/01/31 08:04:30;;;;;;;;;;;6.70;99.90;;;;;;5041754;28;20349;-74
2023/01/31 08:07:01;;;;;;;;;;;;;;;;;;5026929;28;20386;-74
2023/01/31 08:09:32;;;;;;;;;;;6.70;99.90;;;;;;5008340;28;20279;-73
2023/01/31 08:12:06;;;;;;;;;;;;;;;;;;5027786;28;19967;-73
2023/01/31 08:14:37;;;;;;;;;;;6.80;99.90;;;;;;5027812;28;20329;-73
2023/01/31 08:17:07;;;;;;;;;;;6.70;99.90;;;;;;5007179;28;20421;-75
2023/01/31 08:19:51;;;;;;;;;;;6.60;99.90;;;;;;5033835;28;19924;-73
2023/01/31 08:22:16;;;;;;;;;;;6.60;99.90;;;;;;5025791;28;19929;-74
2023/01/31 08:24:45;;;;;;;;;;;6.80;99.90;;;;;;5033721;28;19925;-74
2023/01/31 08:27:17;;;;;;;;;;;6.70;99.90;;;;;;5021925;28;19924;-74
2023/01/31 08:29:51;;;;;;;;;;;6.70;99.90;;;;;;5034555;28;19925;-74
2023/01/31 08:32:24;;;;;;;;;;;;;;;;;;5019171;28;19921;-74
2023/01/31 08:34:50;;;;;;;;;;;;;;;;;;5011728;28;19925;-74
2023/01/31 08:37:16;;;;;;;;;;;;;;;;;;5000164;28;19971;-74
2023/01/31 08:39:47;;;;;;;;;;;;;;;;;;5000899;28;19995;-74
2023/01/31 08:42:13;;;;;;;;;;;;;;;;;;5017764;28;20402;-75
2023/01/31 08:44:47;;;;;;;;;;;;;;;;;;5001871;28;19928;-74
2023/01/31 08:47:16;;;;;;;;;;;;;;;;;;5040139;28;19927;-75
2023/01/31 08:49:44;;;;;;;;;;;;;;;;;;5021812;28;20288;-74
2023/01/31 08:52:22;;;;;;;;;;;;;;;;;;5016840;28;19975;-74
2023/01/31 08:55:00;;;;;;;;;;;;;;;;;;5005127;28;19921;-74
2023/01/31 08:57:29;;;;;;;;;;;;;;;;;;5008706;28;19921;-73
2023/01/31 09:00:04;;;;;;;;;;;;;;;;;;5017524;28;20003;-74
2023/01/31 09:02:36;;;;;;;;;;;;;;;;;;5025649;28;19939;-74
2023/01/31 09:05:02;;;;;;;;;;;;;;;;;;5009888;28;19925;-74
2023/01/31 09:07:34;;;;;;;;;;;;;;;;;;5008950;28;19931;-74
2023/01/31 09:10:09;;;;;;;;;;;;;;;;;;5012316;28;19956;-74
2023/01/31 09:12:47;;;;;;;;;;;;;;;;;;5015204;28;20008;-74
2023/01/31 09:15:16;;;;;;;;;;;;;;;;;;5035807;28;19924;-73
2023/01/31 09:17:50;;;;;;;;;;;7.30;99.90;;;;;;5010838;28;19972;-74
2023/01/31 09:23:07;;;;;;;;;;;;;;;;;;5027796;28;20434;-72
2023/01/31 09:25:59;;;;;;;;;;;7.30;99.90;;;;;;5027368;28;20011;-73
2023/01/31 09:28:33;;;;;;;;;;;;;;;;;;5034716;28;19928;-73
2023/01/31 09:34:12;;;;;;;;;;;;;;;;;;4970279;28;19922;-74
2023/01/31 09:36:44;;;;;;;;;;;;;;;;;;5009630;28;19920;-75
2023/01/31 09:39:10;;;;;;;;;;;;;;;;;;5007667;28;19975;-72
2023/01/31 09:41:39;;;;;;;;;;;;;;;;;;5000199;28;19926;-72
2023/01/31 09:44:21;;;;;;;;;;;7.30;99.90;;;;;;5019418;28;19960;-74
2023/01/31 09:47:18;;;;;;;;;;;7.60;99.90;;;;;;5025518;28;19924;-73
2023/01/31 09:49:51;;;;;;;;;;;;;;;;;;5042998;28;19921;-72
2023/01/31 09:52:30;;;;;;;;;;;;;;;;;;5027414;28;20462;-73
2023/01/31 09:54:59;;;;;;;;;;;7.40;99.90;;;;;;5026349;28;19999;-74
2023/01/31 09:57:30;;;;;;;;;;;;;;;;;;5023433;28;19921;-74
2023/01/31 09:59:56;;;;;;;;;;;;;;;;;;5015787;28;19928;-74
2023/01/31 10:02:34;;;;;;;;;;;;;;;;;;5014655;28;20402;-74
2023/01/31 10:05:07;;;;;;;;;;;;;;;;;;5036126;28;19920;-74
2023/01/31 10:07:33;;;;;;;;;;;;;;;;;;5019964;28;20318;-72
2023/01/31 10:10:02;;;;;;;;;;;;;;;;;;4998188;28;19925;-73
2023/01/31 10:12:39;;;;;;;;;;;7.40;99.90;;;;;;5008221;28;19921;-73
2023/01/31 10:15:08;;;;;;;;;;;;;;;;;;5035103;28;19928;-74
2023/01/31 10:17:42;;;;;;;;;;;7.60;99.90;;;;;;5029495;28;19921;-74
2023/01/31 10:20:11;;;;;;;;;;;;;;;;;;5017082;28;19921;-74
2023/01/31 10:22:39;;;;;;;;;;;;;;;;;;5029131;28;19925;-74
2023/01/31 10:25:25;;;;;;;;;;;;;;;;;;5013502;28;20325;-73
2023/01/31 10:28:00;;;;;;;;;;;;;;;;;;5003358;28;19973;-74
2023/01/31 10:31:12;;;;;;;;;;;7.80;99.90;;;;;;5018207;28;19956;-74
2023/01/31 10:33:44;;;;;;;;;;;;;;;;;;4998815;28;19921;-73
2023/01/31 10:36:13;;;;;;;;;;;;;;;;;;5029732;28;20409;-73
2023/01/31 10:38:40;;;;;;;;;;;;;;;;;;5051794;28;19928;-73
2023/01/31 10:41:34;;;;;;;;;;;7.60;99.90;;;;;;5034797;28;19977;-72
2023/01/31 10:44:01;;;;;;;;;;;;;;;;;;4995364;28;20280;-73
2023/01/31 10:46:29;;;;;;;;;;;7.70;99.90;;;;;;5014590;28;20311;-72
2023/01/31 10:49:03;;;;;;;;;;;7.70;99.90;;;;;;5033091;28;19952;-73
2023/01/31 10:54:24;;;;;;;;;;;;;;;;;;5034447;28;19986;-73
2023/01/31 10:57:11;;;;;;;;;;;7.50;99.90;;;;;;5007770;28;19921;-73
2023/01/31 10:59:37;;;;;;;;;;;;;;;;;;4998999;28;20378;-73
2023/01/31 11:02:06;;;;;;;;;;;7.60;99.90;;;;;;5014982;28;19968;-73
2023/01/31 11:04:41;;;;;;;;;;;7.60;99.90;;;;;;5032974;28;20372;-74
2023/01/31 11:07:13;;;;;;;;;;;;;;;;;;5034999;28;19939;-74
2023/01/31 11:09:39;;;;;;;;;;;;;;;;;;5030818;28;19922;-73
2023/01/31 11:12:08;;;;;;;;;;;;;;;;;;4982313;28;19929;-74
2023/01/31 11:14:40;;;;;;;;;;;;;;;;;;4985092;28;20300;-73
2023/01/31 11:17:26;;;;;;;;;;;8.00;99.90;;;;;;5026285;28;20382;-73
2023/01/31 11:20:03;;;;;;;;;;;8.00;99.90;;;;;;5016008;28;19924;-73
2023/01/31 11:22:47;;;;;;;;;;;7.70;99.90;;;;;;5027867;28;19933;-73
2023/01/31 11:25:14;;;;;;;;;;;;;;;;;;5001983;28;19929;-72
2023/01/31 11:27:46;;;;;;;;;;;8.00;99.90;;;;;;5009451;28;20012;-73
2023/01/31 11:30:18;;;;;;;;;;;;;;;;;;5028554;28;19929;-73
2023/01/31 11:32:53;;;;;;;;;;;;;;;;;;5024240;28;19921;-72
2023/01/31 11:35:31;;;;;;;;;;;8.10;99.90;;;;;;5007551;28;19932;-72
2023/01/31 11:38:12;;;;;;;;;;;8.10;99.90;;;;;;5008480;28;19964;-72
2023/01/31 11:40:51;;;;;;;;;;;;;;;;;;5008377;28;19932;-73
2023/01/31 11:43:30;;;;;;;;;;;;;;;;;;;;;
2023/01/31 11:45:56;;;;;;;;;;;;;;;;;;5023884;28;19933;-72
2023/01/31 11:48:36;;;;;;;;;;;8.30;99.90;;;;;;5010580;28;19928;-74
2023/01/31 11:51:02;;;;;;;;;;;;;;;;;;5004599;28;20310;-73
2023/01/31 11:53:29;;;;;;;;;;;;;;;;;;5039527;28;19921;-71
2023/01/31 11:56:10;;;;;;;;;;;8.60;99.90;;;;;;5013676;28;20059;-73
2023/01/31 11:58:39;;;;;;;;;;;;;;;;;;5027157;28;19927;-73
2023/01/31 12:04:20;;;;;;;;;;;;;;;;;;5023250;28;19929;-72
2023/01/31 12:06:51;;;;;;;;;;;;;;;;;;5021158;28;19925;-72
2023/01/31 12:09:17;;;;;;;;;;;;;;;;;;5014829;28;19921;-73
2023/01/31 12:11:57;;;;;;;;;;;;;;;;;;5047682;28;19928;-72
2023/01/31 12:14:29;;;;;;;;;;;;;;;;;;5031585;28;19928;-73
2023/01/31 12:17:14;;;;;;;;;;;;;;;;;;5047633;28;20467;-73
2023/01/31 12:19:59;;;;;;;;;;;;;;;;;;5009254;28;20295;-73
2023/01/31 12:22:25;;;;;;;;;;;;;;;;;;5020217;28;19933;-73
2023/01/31 12:24:51;;;;;;;;;;;;;;;;;;5028289;28;19921;-73
2023/01/31 12:27:55;;;;;;;;;;;8.90;99.90;;;;;;5033791;28;19927;-73
2023/01/31 12:30:36;;;;;;;;;;;;;;;;;;5019244;28;19920;-73
2023/01/31 12:33:02;;;;;;;;;;;;;;;;;;5019754;28;19983;-73
2023/01/31 12:35:34;;;;;;;;;;;;;;;;;;5020645;28;19921;-71
2023/01/31 12:38:09;;;;;;;;;;;8.90;99.90;;;;;;5027914;28;20310;-72
2023/01/31 12:40:37;;;;;;;;;;;;;;;;;;5033642;28;19967;-73
2023/01/31 12:43:13;;;;;;;;;;;9.40;99.90;;;;;;5035352;28;20051;-73
2023/01/31 12:45:45;;;;;;;;;;;;;;;;;;5036910;28;19999;-73
2023/01/31 12:48:17;;;;;;;;;;;;;;;;;;5031586;28;19971;-73
2023/01/31 12:50:55;;;;;;;;;;;9.20;99.90;;;;;;5017472;28;19933;-73
2023/01/31 12:53:23;;;;;;;;;;;;;;;;;;5007307;28;19972;-72
2023/01/31 12:55:52;;;;;;;;;;;;;;;;;;5030589;28;19972;-73
2023/01/31 12:58:20;;;;;;;;;;;;;;;;;;5020087;28;19976;-73
2023/01/31 13:00:46;;;;;;;;;;;;;;;;;;5029008;28;20017;-72
2023/01/31 13:03:21;;;;;;;;;;;;;;;;;;5011372;28;19925;-72
2023/01/31 13:06:02;;;;;;;;;;;9.20;99.90;;;;;;5019382;28;19921;-73
2023/01/31 13:08:28;;;;;;;;;;;;;;;;;;5034786;28;19921;-72
2023/01/31 13:11:18;;;;;;;;;;;9.30;99.90;;;;;;5034827;28;19928;-72
2023/01/31 13:14:04;;;;;;;;;;;;;;;;;;5036749;28;20333;-72
2023/01/31 13:16:40;;;;;;;;;;;9.30;99.90;;;;;;5020443;28;19943;-73
2023/01/31 13:19:32;;;;;;;;;;;9.20;99.90;;;;;;5035837;28;19931;-72
2023/01/31 13:22:04;;;;;;;;;;;9.20;99.90;;;;;;5036812;28;19982;-72
2023/01/31 13:24:39;;;;;;;;;;;;;;;;;;5016566;28;19921;-71
2023/01/31 13:27:08;;;;;;;;;;;;;;;;;;5017121;28;19928;-72
2023/01/31 13:30:03;;;;;;;;;;;9.00;99.90;;;;;;5001388;28;19921;-71
2023/01/31 13:32:37;;;;;;;;;;;9.50;99.90;;;;;;5026698;28;19920;-71
2023/01/31 13:35:03;;;;;;;;;;;;;;;;;;5054374;28;20374;-71
2023/01/31 13:37:30;;;;;;;;;;;9.40;99.90;;;;;;5054070;28;19920;-71
2023/01/31 13:39:58;;;;;;;;;;;9.30;99.90;;;;;;5054547;28;19920;-71
2023/01/31 13:42:27;;;;;;;;;;;9.40;99.90;;;;;;5054272;28;19968;-72
2023/01/31 13:44:53;;;;;;;;;;;9.40;99.90;;;;;;5050237;28;19921;-70
2023/01/31 13:47:21;;;;;;;;;;;9.50;99.90;;;;;;5054113;28;19928;-71
2023/01/31 13:49:47;;;;;;;;;;;;;;;;;;5036707;28;19929;-71
2023/01/31 13:52:17;;;;;;;;;;;9.40;99.90;;;;;;5036119;28;20421;-70
2023/01/31 13:54:45;;;;;;;;;;;9.40;99.90;;;;;;5051792;28;20394;-70
2023/01/31 13:57:24;;;;;;;;;;;9.50;99.90;;;;;;5026494;28;19927;-70
2023/01/31 13:59:55;;;;;;;;;;;9.40;99.90;;;;;;5028086;28;19928;-70
2023/01/31 14:02:20;;;;;;;;;;;9.40;99.90;;;;;;5044004;28;19932;-71
2023/01/31 14:04:46;;;;;;;;;;;;;;;;;;5021103;28;19924;-70
2023/01/31 14:07:12;;;;;;;;;;;;;;;;;;5017622;28;20007;-70
2023/01/31 14:09:42;;;;;;;;;;;9.30;99.90;;;;;;5020068;28;20418;-70
2023/01/31 14:12:08;;;;;;;;;;;9.30;99.90;;;;;;5054293;28;20344;-70
2023/01/31 14:14:38;;;;;;;;;;;;;;;;;;5053340;28;19920;-70
2023/01/31 14:17:04;;;;;;;;;;;9.20;99.90;;;;;;5052796;28;20314;-70
2023/01/31 14:19:30;;;;;;;;;;;;;;;;;;5035593;28;19921;-70
2023/01/31 14:21:57;;;;;;;;;;;;;;;;;;5053410;28;20336;-70
2023/01/31 14:24:45;;;;;;;;;;;9.10;99.90;;;;;;5035473;28;19925;-70
2023/01/31 14:27:18;;;;;;;;;;;9.00;99.90;;;;;;5012702;28;19927;-71
2023/01/31 14:29:44;;;;;;;;;;;9.10;99.90;;;;;;5009278;28;19967;-71
2023/01/31 14:32:10;;;;;;;;;;;;;;;;;;5027432;28;20318;-71
2023/01/31 14:34:36;;;;;;;;;;;;;;;;;;5025972;28;19936;-70
2023/01/31 14:37:16;;;;;;;;;;;9.20;99.90;;;;;;5033062;28;19932;-71
2023/01/31 14:39:50;;;;;;;;;;;9.30;99.90;;;;;;5024383;28;19991;-71
2023/01/31 14:42:16;;;;;;;;;;;8.90;99.90;;;;;;5033303;28;20288;-71
2023/01/31 14:44:41;;;;;;;;;;;8.90;99.90;;;;;;5015609;28;19946;-71
2023/01/31 14:47:07;;;;;;;;;;;;;;;;;;5032940;28;19921;-71
2023/01/31 14:49:33;;;;;;;;;;;;;;;;;;5033226;28;20004;-71
2023/01/31 14:52:23;;;;;;;;;;;9.30;99.90;;;;;;5029191;28;19921;-72
2023/01/31 14:54:49;;;;;;;;;;;;;;;;;;5053306;28;19971;-71
2023/01/31 14:57:16;;;;;;;;;;;;;;;;;;5044189;28;19928;-71
2023/01/31 14:59:50;;;;;;;;;;;8.90;99.90;;;;;;5020701;28;20087;-71
2023/01/31 15:02:33;;;;;;;;;;;9.10;99.90;;;;;;5047301;28;19929;-71
2023/01/31 15:05:01;;;;;;;;;;;9.10;99.90;;;;;;5052441;28;19975;-71
2023/01/31 15:07:29;;;;;;;;;;;8.90;99.90;;;;;;5034976;28;20030;-71
2023/01/31 15:09:55;;;;;;;;;;;8.90;99.90;;;;;;5034879;28;20365;-70
2023/01/31 15:12:21;;;;;;;;;;;;;;;;;;5034891;28;19956;-70
2023/01/31 15:14:48;;;;;;;;;;;;;;;;;;5034385;28;20062;-71
2023/01/31 15:17:21;;;;;;;;;;;8.90;99.90;;;;;;5049744;28;20343;-71
2023/01/31 15:19:47;;;;;;;;;;;;;;;;;;5041958;28;19927;-72
2023/01/31 15:22:13;;;;;;;;;;;;;;;;;;5023593;28;19925;-71
2023/01/31 15:24:39;;;;;;;;;;;;;;;;;;5043299;28;20310;-71
2023/01/31 15:27:27;;;;;;;;;;;8.80;99.90;;;;;;5008780;28;19921;-71
2023/01/31 15:29:53;;;;;;;;;;;;;;;;;;5030945;28;19931;-71
2023/01/31 15:32:23;;;;;;;;;;;8.50;99.90;;;;;;5016667;28;20379;-71
2023/01/31 15:35:03;;;;;;;;;;;8.50;99.90;;;;;;5043089;28;19968;-71
2023/01/31 15:37:30;;;;;;;;;;;8.50;99.90;;;;;;5048479;28;19927;-71
2023/01/31 15:39:56;;;;;;;;;;;;;;;;;;5037551;28;20011;-71
2023/01/31 15:42:23;;;;;;;;;;;8.60;99.90;;;;;;5040105;28;20490;-72
2023/01/31 15:45:09;;;;;;;;;;;8.50;99.90;;;;;;5032256;28;19921;-71
2023/01/31 15:47:35;;;;;;;;;;;8.60;99.90;;;;;;5005753;28;19960;-71
2023/01/31 15:50:01;;;;;;;;;;;;;;;;;;5042758;28;19956;-71
2023/01/31 15:52:27;;;;;;;;;;;8.40;99.90;;;;;;5001000;28;19963;-71
2023/01/31 15:54:54;;;;;;;;;;;8.20;99.90;;;;;;5042768;28;20396;-71
2023/01/31 15:57:20;;;;;;;;;;;;;;;;;;5040769;28;19927;-72
2023/01/31 15:59:47;;;;;;;;;;;8.10;99.90;;;;;;5041357;28;20289;-72
2023/01/31 16:02:26;;;;;;;;;;;8.00;99.90;;;;;;5025118;28;20020;-71
2023/01/31 16:04:52;;;;;;;;;;;;;;;;;;5027783;28;19975;-71
2023/01/31 16:07:18;;;;;;;;;;;;;;;;;;5042058;28;19929;-71
2023/01/31 16:09:47;;;;;;;;;;;;;;;;;;5042004;28;19921;-71
2023/01/31 16:12:13;;;;;;;;;;;;;;;;;;5023000;28;19921;-72
2023/01/31 16:14:39;;;;;;;;;;;;;;;;;;5024508;28;19920;-71
2023/01/31 16:17:05;;;;;;;;;;;;;;;;;;5024501;28;19921;-72
2023/01/31 16:19:31;;;;;;;;;;;;;;;;;;5040755;28;20545;-72
2023/01/31 16:21:57;;;;;;;;;;;8.10;99.90;;;;;;5016550;28;19925;-72
2023/01/31 16:24:23;;;;;;;;;;;;;;;;;;5038639;28;19928;-72